createdAt,value
2022-09-05T00:02:31.471Z,100615.25
2022-09-05T00:05:15.894Z,100614.03
2022-09-05T00:07:59.654Z,100625.69
2022-09-05T00:10:47.967Z,100627.19
2022-09-05T00:13:30.338Z,100626.81
2022-09-05T00:16:16.693Z,100625.13
2022-09-05T00:24:18.464Z,100626.53
2022-09-05T00:24:34.455Z,100625.00
2022-09-05T00:27:57.437Z,100618.19
2022-09-05T00:31:50.924Z,100619.09
2022-09-05T00:33:27.530Z,100607.56
2022-09-05T00:36:14.686Z,100614.00
2022-09-05T00:38:55.760Z,100615.88
2022-09-05T00:41:24.440Z,100612.47
2022-09-05T00:43:54.135Z,100611.72
2022-09-05T00:46:28.007Z,100611.13
2022-09-05T00:49:16.789Z,100621.84
2022-09-05T00:51:54.081Z,100615.88
2022-09-05T00:54:44.786Z,100624.00
2022-09-05T00:57:43.301Z,100620.84
2022-09-05T01:00:18.466Z,100618.47
2022-09-05T01:03:13.986Z,100618.47
2022-09-05T01:06:05.961Z,100623.75
2022-09-05T01:09:08.161Z,100627.31
2022-09-05T01:11:48.994Z,100624.94
2022-09-05T01:14:45.372Z,100617.00
2022-09-05T01:17:25.253Z,100619.56
2022-09-05T01:20:19.418Z,100618.06
2022-09-05T01:23:08.298Z,100617.09
2022-09-05T01:25:47.025Z,100612.75
2022-09-05T01:29:16.023Z,100610.16
2022-09-05T01:31:27.721Z,100612.91
2022-09-05T01:34:04.446Z,100619.84
2022-09-05T01:36:47.048Z,100620.03
2022-09-05T01:40:12.500Z,100622.75
2022-09-05T01:42:23.347Z,100621.41
2022-09-05T01:45:00.640Z,100622.69
2022-09-05T01:47:40.745Z,100615.13
2022-09-05T01:50:20.627Z,100613.47
2022-09-05T01:53:07.218Z,100618.88
2022-09-05T01:56:06.158Z,100617.69
2022-09-05T01:58:50.576Z,100624.44
2022-09-05T02:01:32.648Z,100620.25
2022-09-05T02:04:21.262Z,100617.72
2022-09-05T02:07:30.204Z,100616.88
2022-09-05T02:10:07.851Z,100614.22
2022-09-05T02:12:54.515Z,100616.66
2022-09-05T02:15:42.923Z,100620.09
2022-09-05T02:18:27.100Z,100623.84
2022-09-05T02:21:00.131Z,100625.41
2022-09-05T02:23:42.620Z,100627.09
2022-09-05T02:26:19.451Z,100618.19
2022-09-05T02:28:55.260Z,100623.28
2022-09-05T02:31:33.431Z,100623.50
2022-09-05T02:34:11.213Z,100620.78
2022-09-05T02:36:44.878Z,100620.84
2022-09-05T02:45:03.869Z,100610.19
2022-09-05T02:45:17.001Z,100613.84
2022-09-05T02:45:26.848Z,100619.06
2022-09-05T02:48:06.943Z,100627.09
2022-09-05T02:57:07.798Z,100627.09
2022-09-05T02:57:37.623Z,100627.00
2022-09-05T02:57:41.947Z,100622.72
2022-09-05T02:59:54.026Z,100628.03
2022-09-05T03:02:31.364Z,100630.91
2022-09-05T03:05:07.160Z,100628.53
2022-09-05T03:07:52.902Z,100630.81
2022-09-05T03:11:05.013Z,100633.88
2022-09-05T03:14:05.600Z,100627.38
2022-09-05T03:17:05.224Z,100635.22
2022-09-05T03:20:12.081Z,100634.28
2022-09-05T03:23:16.271Z,100636.25
2022-09-05T03:26:35.619Z,100642.41
2022-09-05T03:29:34.056Z,100644.97
2022-09-05T03:32:28.513Z,100639.56
2022-09-05T03:35:50.068Z,100642.16
2022-09-05T03:38:43.315Z,100650.00
2022-09-05T03:41:39.932Z,100651.63
2022-09-05T03:44:22.213Z,100660.47
2022-09-05T03:47:40.826Z,100658.09
2022-09-05T03:57:04.833Z,100652.78
2022-09-05T03:57:14.835Z,100656.28
2022-09-05T03:57:21.028Z,100665.09
2022-09-05T04:00:05.811Z,100666.03
2022-09-05T04:08:07.949Z,100676.53
2022-09-05T04:08:14.025Z,100670.22
2022-09-05T04:08:38.675Z,100675.34
2022-09-05T04:11:16.342Z,100676.03
2022-09-05T04:13:50.750Z,100679.44
2022-09-05T04:16:21.678Z,100673.91
2022-09-05T04:18:54.896Z,100683.41
2022-09-05T04:21:28.251Z,100684.94
2022-09-05T04:24:07.475Z,100684.03
2022-09-05T04:27:01.930Z,100695.81
2022-09-05T04:29:43.962Z,100697.53
2022-09-05T04:32:25.097Z,100703.41
2022-09-05T04:35:09.732Z,100693.69
2022-09-05T04:37:48.416Z,100692.91
2022-09-05T04:40:45.752Z,100705.25
2022-09-05T04:43:31.248Z,100699.88
2022-09-05T04:46:08.405Z,100699.16
2022-09-05T04:48:43.977Z,100696.25
2022-09-05T04:51:44.089Z,100700.69
2022-09-05T04:54:32.487Z,100688.31
2022-09-05T04:57:14.022Z,100697.44
2022-09-05T05:03:51.480Z,100695.22
2022-09-05T05:06:12.240Z,100700.16
2022-09-05T05:06:23.791Z,100692.06
2022-09-05T05:08:38.646Z,100694.38
2022-09-05T05:17:23.881Z,100695.81
2022-09-05T05:18:01.114Z,100699.28
2022-09-05T05:18:11.990Z,100699.25
2022-09-05T05:20:40.541Z,100703.78
2022-09-05T05:23:07.653Z,100698.84
2022-09-05T05:25:47.100Z,100698.56
2022-09-05T05:28:23.987Z,100689.72
2022-09-05T05:30:55.363Z,100692.66
2022-09-05T05:33:35.039Z,100702.75
2022-09-05T05:36:08.285Z,100694.50
2022-09-05T05:38:45.027Z,100696.16
2022-09-05T05:41:21.333Z,100702.75
2022-09-05T05:43:51.117Z,100707.41
2022-09-05T05:46:31.386Z,100711.13
2022-09-05T05:49:17.737Z,100710.59
2022-09-05T05:52:02.521Z,100700.47
2022-09-05T05:54:38.777Z,100706.66
2022-09-05T05:57:35.252Z,100697.22
2022-09-05T06:00:14.982Z,100695.28
2022-09-05T06:03:26.778Z,100704.22
2022-09-05T06:06:22.941Z,100710.69
2022-09-05T06:14:26.162Z,100712.19
2022-09-05T06:14:56.249Z,100710.81
2022-09-05T06:16:07.692Z,100713.19
2022-09-05T06:19:08.364Z,100712.31
2022-09-05T06:22:13.844Z,100715.03
2022-09-05T06:25:31.411Z,100713.84
2022-09-05T06:28:18.455Z,100708.50
2022-09-05T06:31:22.520Z,100718.56
2022-09-05T06:34:00.341Z,100716.44
2022-09-05T06:36:48.906Z,100716.84
2022-09-05T06:39:26.177Z,100709.38
2022-09-05T06:42:39.127Z,100721.84
2022-09-05T06:45:30.242Z,100723.72
2022-09-05T06:48:06.007Z,100719.53
2022-09-05T06:51:08.303Z,100716.66
2022-09-05T06:53:59.003Z,100722.72
2022-09-05T06:56:44.686Z,100721.81
2022-09-05T07:00:02.863Z,100719.34
2022-09-05T07:02:58.440Z,100721.88
2022-09-05T07:05:40.275Z,100718.72
2022-09-05T07:08:36.113Z,100721.72
2022-09-05T07:11:15.510Z,100724.94
2022-09-05T07:13:57.783Z,100724.59
2022-09-05T07:16:38.939Z,100720.03
2022-09-05T07:19:27.044Z,100725.19
2022-09-05T07:22:48.525Z,100727.16
2022-09-05T07:25:18.191Z,100720.03
2022-09-05T07:28:28.537Z,100725.09
2022-09-05T07:30:51.147Z,100722.75
2022-09-05T07:33:21.507Z,100734.06
2022-09-05T07:35:52.095Z,100735.22
2022-09-05T07:38:32.583Z,100734.72
2022-09-05T07:41:17.198Z,100731.50
2022-09-05T07:43:48.262Z,100739.66
2022-09-05T07:46:23.390Z,100724.56
2022-09-05T07:48:57.029Z,100730.56
2022-09-05T07:56:49.662Z,100733.47
2022-09-05T07:57:08.067Z,100730.91
2022-09-05T07:57:27.015Z,100733.50
2022-09-05T08:00:03.325Z,100726.25
2022-09-05T08:02:33.329Z,100723.03
2022-09-05T08:05:05.372Z,100733.03
2022-09-05T08:07:49.662Z,100718.63
2022-09-05T08:10:31.022Z,100724.75
2022-09-05T08:13:24.457Z,100726.44
2022-09-05T08:16:12.926Z,100723.56
2022-09-05T08:18:50.493Z,100723.75
2022-09-05T08:21:27.076Z,100723.06
2022-09-05T08:24:13.922Z,100721.22
2022-09-05T08:26:48.732Z,100721.22
2022-09-05T08:29:28.483Z,100721.50
2022-09-05T08:32:04.139Z,100716.63
2022-09-05T08:34:45.431Z,100720.53
2022-09-05T08:37:20.931Z,100721.06
2022-09-05T08:40:09.678Z,100722.75
2022-09-05T08:43:29.498Z,100721.03
2022-09-05T08:46:46.221Z,100713.13
2022-09-05T08:48:55.975Z,100726.13
2022-09-05T08:51:35.237Z,100715.00
2022-09-05T08:54:20.673Z,100713.28
2022-09-05T08:56:56.302Z,100715.28
2022-09-05T08:59:34.758Z,100715.47
2022-09-05T09:02:47.937Z,100702.81
2022-09-05T09:06:08.483Z,100703.13
2022-09-05T09:08:33.379Z,100703.81
2022-09-05T09:11:06.759Z,100690.66
2022-09-05T09:13:52.492Z,100690.66
2022-09-05T09:16:37.400Z,100680.34
2022-09-05T09:19:29.152Z,100687.44
2022-09-05T09:22:10.816Z,100654.88
2022-09-05T09:25:08.759Z,100678.47
2022-09-05T09:28:48.488Z,100679.66
2022-09-05T09:30:38.748Z,100689.13
2022-09-05T09:33:12.648Z,100678.13
2022-09-05T09:35:48.366Z,100683.53
2022-09-05T09:38:37.938Z,100683.50
2022-09-05T09:41:37.965Z,100687.94
2022-09-05T09:44:54.845Z,100688.28
2022-09-05T09:47:37.488Z,100680.50
2022-09-05T09:50:21.868Z,100681.84
2022-09-05T09:53:35.249Z,100681.72
2022-09-05T09:56:42.147Z,100670.66
2022-09-05T09:59:34.853Z,100682.06
2022-09-05T10:03:58.165Z,100674.16
2022-09-05T10:10:45.166Z,100669.84
2022-09-05T10:10:59.754Z,100667.81
2022-09-05T10:12:02.065Z,100671.03
2022-09-05T10:14:58.997Z,100670.25
2022-09-05T10:17:49.270Z,100666.63
2022-09-05T10:21:16.398Z,100657.69
2022-09-05T10:24:00.964Z,100666.03
2022-09-05T10:27:00.627Z,100653.59
2022-09-05T10:29:45.787Z,100658.44
2022-09-05T10:35:10.779Z,100645.69
2022-09-05T10:35:22.638Z,100652.22
2022-09-05T10:37:57.497Z,100644.34
2022-09-05T10:40:28.441Z,100639.19
2022-09-05T10:43:03.406Z,100641.91
2022-09-05T10:45:48.411Z,100632.66
2022-09-05T10:48:24.131Z,100634.72
2022-09-05T10:51:01.063Z,100637.63
2022-09-05T10:53:39.914Z,100635.03
2022-09-05T10:56:16.050Z,100631.53
2022-09-05T11:00:28.158Z,100622.19
2022-09-05T11:02:26.639Z,100619.94
2022-09-05T11:04:55.677Z,100620.41
2022-09-05T11:07:34.764Z,100623.59
2022-09-05T11:10:06.237Z,100611.53
2022-09-05T11:12:57.663Z,100621.81
2022-09-05T11:15:34.645Z,100615.91
2022-09-05T11:18:08.452Z,100618.53
2022-09-05T11:20:47.769Z,100612.63
2022-09-05T11:23:21.687Z,100610.81
2022-09-05T11:26:01.073Z,100608.44
2022-09-05T11:28:55.859Z,100604.56
2022-09-05T11:31:50.403Z,100598.09
2022-09-05T11:39:53.892Z,100599.53
2022-09-05T11:40:10.855Z,100597.97
2022-09-05T11:41:40.425Z,100611.91
2022-09-05T11:44:26.940Z,100607.09
2022-09-05T11:47:52.141Z,100600.31
2022-09-05T11:51:05.458Z,100598.44
2022-09-05T11:53:49.970Z,100591.03
2022-09-05T11:57:32.093Z,100602.44
2022-09-05T12:00:33.928Z,100592.09
2022-09-05T12:03:59.704Z,100590.72
2022-09-05T12:07:00.571Z,100588.16
2022-09-05T12:09:47.593Z,100588.97
2022-09-05T12:12:41.040Z,100594.75
2022-09-05T12:15:25.822Z,100590.38
2022-09-05T12:18:19.621Z,100578.84
2022-09-05T12:20:57.731Z,100585.97
2022-09-05T12:23:49.296Z,100583.75
2022-09-05T12:29:29.455Z,100572.97
2022-09-05T12:34:34.236Z,100574.78
2022-09-05T12:36:07.239Z,100568.19
2022-09-05T12:40:55.706Z,100563.63
2022-09-05T12:41:39.754Z,100556.41
2022-09-05T12:42:09.640Z,100576.84
2022-09-05T12:44:38.306Z,100562.84
2022-09-05T12:46:46.949Z,100553.94
2022-09-05T12:49:35.274Z,100559.41
2022-09-05T12:52:07.460Z,100558.66
2022-09-05T12:54:48.877Z,100554.13
2022-09-05T13:02:41.916Z,100551.56
2022-09-05T13:03:14.117Z,100546.28
2022-09-05T13:03:28.214Z,100538.06
2022-09-05T13:06:08.678Z,100543.53
2022-09-05T13:08:59.109Z,100529.38
2022-09-05T13:14:46.802Z,100537.59
2022-09-05T13:14:58.079Z,100541.28
2022-09-05T13:17:16.745Z,100534.94
2022-09-05T13:19:52.294Z,100530.22
2022-09-05T13:22:23.335Z,100524.88
2022-09-05T13:25:00.997Z,100524.50
2022-09-05T13:27:33.023Z,100525.41
2022-09-05T13:31:13.759Z,100527.44
2022-09-05T13:38:02.436Z,100525.50
2022-09-05T13:38:16.292Z,100528.09
2022-09-05T13:39:01.157Z,100518.72
2022-09-05T13:41:32.094Z,100525.69
2022-09-05T13:44:25.778Z,100519.00
2022-09-05T13:46:58.456Z,100519.69
2022-09-05T13:49:33.395Z,100510.63
2022-09-05T13:52:26.306Z,100513.63
2022-09-05T13:55:04.493Z,100514.84
2022-09-05T13:57:38.152Z,100502.56
2022-09-05T14:00:47.400Z,100502.00
2022-09-05T14:03:55.796Z,100488.56
2022-09-05T14:07:43.991Z,100498.66
2022-09-05T14:10:03.266Z,100491.19
2022-09-05T14:12:38.862Z,100502.22
2022-09-05T14:15:25.413Z,100496.31
2022-09-05T14:18:20.147Z,100489.97
2022-09-05T14:21:17.552Z,100488.19
2022-09-05T14:23:56.033Z,100479.69
2022-09-05T14:26:29.637Z,100479.19
2022-09-05T14:29:09.185Z,100474.28
2022-09-05T14:37:37.382Z,100477.06
2022-09-05T14:37:43.463Z,100474.38
2022-09-05T14:38:15.674Z,100470.75
2022-09-05T14:41:26.060Z,100475.00
2022-09-05T14:44:24.360Z,100472.75
2022-09-05T14:47:35.459Z,100476.91
2022-09-05T14:50:29.430Z,100480.22
2022-09-05T14:56:12.222Z,100478.03
2022-09-05T15:02:43.897Z,100469.63
2022-09-05T15:02:55.115Z,100475.03
2022-09-05T15:04:45.657Z,100473.25
2022-09-05T15:07:21.568Z,100466.91
2022-09-05T15:12:18.327Z,100462.53
2022-09-05T15:13:05.834Z,100449.94
2022-09-05T15:15:38.686Z,100457.41
2022-09-05T15:18:11.996Z,100462.44
2022-09-05T15:20:41.674Z,100459.72
2022-09-05T15:23:16.203Z,100447.50
2022-09-05T15:25:47.796Z,100460.09
2022-09-05T15:28:31.684Z,100464.34
2022-09-05T15:31:04.681Z,100466.25
2022-09-05T15:33:34.859Z,100456.81
2022-09-05T15:36:04.215Z,100454.28
2022-09-05T15:38:54.290Z,100461.50
2022-09-05T15:41:25.051Z,100452.00
2022-09-05T15:44:04.633Z,100456.06
2022-09-05T15:46:51.511Z,100444.56
2022-09-05T15:49:35.044Z,100452.88
2022-09-05T15:52:08.378Z,100447.50
2022-09-05T15:54:40.498Z,100444.28
2022-09-05T15:57:17.599Z,100449.34
2022-09-05T15:59:49.595Z,100437.88
2022-09-05T16:02:22.301Z,100452.56
2022-09-05T16:10:28.504Z,100447.81
2022-09-05T16:10:34.100Z,100446.66
2022-09-05T16:11:28.463Z,100448.06
2022-09-05T16:13:53.303Z,100428.38
2022-09-05T16:23:18.675Z,100435.00
2022-09-05T16:23:32.266Z,100433.56
2022-09-05T16:23:34.527Z,100426.34
2022-09-05T16:25:17.903Z,100435.50
2022-09-05T16:27:52.552Z,100431.19
2022-09-05T16:30:26.203Z,100425.50
2022-09-05T16:33:01.800Z,100432.44
2022-09-05T16:35:33.033Z,100434.31
2022-09-05T16:38:11.628Z,100424.06
2022-09-05T16:40:43.413Z,100425.66
2022-09-05T16:43:19.138Z,100425.34
2022-09-05T16:45:53.179Z,100425.03
2022-09-05T16:48:38.033Z,100419.63
2022-09-05T16:51:24.671Z,100424.56
2022-09-05T16:54:12.566Z,100425.91
2022-09-05T16:56:44.582Z,100420.28
2022-09-05T16:59:17.744Z,100425.00
2022-09-05T17:02:08.206Z,100422.63
2022-09-05T17:05:03.585Z,100419.75
2022-09-05T17:08:01.746Z,100427.28
2022-09-05T17:10:35.936Z,100427.91
2022-09-05T17:13:05.504Z,100428.13
2022-09-05T17:15:37.767Z,100423.16
2022-09-05T17:18:26.894Z,100438.06
2022-09-05T17:21:01.743Z,100429.88
2022-09-05T17:28:31.316Z,100440.88
2022-09-05T17:29:26.220Z,100433.38
2022-09-05T17:32:56.331Z,100433.13
2022-09-05T17:35:42.596Z,100446.94
2022-09-05T17:38:37.655Z,100439.81
2022-09-05T17:41:37.393Z,100444.66
2022-09-05T17:44:15.944Z,100448.41
2022-09-05T17:47:04.356Z,100450.72
2022-09-05T17:49:43.314Z,100449.78
2022-09-05T17:52:20.957Z,100449.13
2022-09-05T17:54:52.534Z,100453.72
2022-09-05T17:57:50.331Z,100459.94
2022-09-05T18:00:58.410Z,100472.13
2022-09-05T18:04:16.611Z,100473.47
2022-09-05T18:06:59.658Z,100476.75
2022-09-05T18:10:11.850Z,100479.28
2022-09-05T18:13:13.284Z,100470.56
2022-09-05T18:16:11.014Z,100480.31
2022-09-05T18:19:28.914Z,100482.16
2022-09-05T18:21:50.995Z,100477.94
2022-09-05T18:30:29.147Z,100477.75
2022-09-05T18:34:03.421Z,100476.75
2022-09-05T18:36:36.220Z,100480.13
2022-09-05T18:39:43.594Z,100481.47
2022-09-05T18:42:34.030Z,100483.03
2022-09-05T18:45:14.439Z,100491.84
2022-09-05T18:47:53.175Z,100489.59
2022-09-05T18:50:32.860Z,100488.31
2022-09-05T18:53:09.312Z,100496.09
2022-09-05T18:56:10.115Z,100492.41
2022-09-05T18:58:51.734Z,100495.81
2022-09-05T19:01:39.731Z,100491.16
2022-09-05T19:04:41.646Z,100493.16
2022-09-05T19:07:12.046Z,100495.66
2022-09-05T19:09:59.878Z,100482.50
2022-09-05T19:12:39.087Z,100480.63
2022-09-05T19:15:19.564Z,100486.25
2022-09-05T19:18:22.807Z,100488.59
2022-09-05T19:21:11.910Z,100488.44
2022-09-05T19:23:48.805Z,100482.75
2022-09-05T19:26:17.892Z,100481.78
2022-09-05T19:33:54.730Z,100474.16
2022-09-05T19:36:59.599Z,100474.41
2022-09-05T19:37:05.308Z,100474.81
2022-09-05T19:37:39.946Z,100472.41
2022-09-05T19:47:25.753Z,100472.94
2022-09-05T19:47:38.729Z,100476.59
2022-09-05T19:47:43.032Z,100470.91
2022-09-05T19:49:06.251Z,100473.22
2022-09-05T19:51:35.659Z,100468.56
2022-09-05T19:54:05.957Z,100470.97
2022-09-05T19:56:39.737Z,100473.50
2022-09-05T19:59:18.316Z,100470.69
2022-09-05T20:01:48.431Z,100459.28
2022-09-05T20:04:19.190Z,100465.09
2022-09-05T20:06:47.802Z,100465.50
2022-09-05T20:09:18.452Z,100463.66
2022-09-05T20:11:53.806Z,100466.34
2022-09-05T20:14:25.032Z,100465.88
2022-09-05T20:16:58.295Z,100467.88
2022-09-05T20:19:32.836Z,100473.22
2022-09-05T20:22:21.220Z,100468.97
2022-09-05T20:24:54.001Z,100479.13
2022-09-05T20:27:27.712Z,100473.97
2022-09-05T20:29:59.907Z,100482.94
2022-09-05T20:32:38.664Z,100478.47
2022-09-05T20:42:45.720Z,100482.38
2022-09-05T20:43:14.514Z,100478.47
2022-09-05T20:43:27.433Z,100484.16
2022-09-05T20:44:04.610Z,100482.19
2022-09-05T20:53:08.400Z,100469.56
2022-09-05T20:54:16.613Z,100472.69
2022-09-05T20:54:21.348Z,100481.88
2022-09-05T20:55:38.548Z,100486.88
2022-09-05T20:58:11.845Z,100484.34
2022-09-05T21:01:20.638Z,100476.78
2022-09-05T21:03:38.697Z,100486.22
2022-09-05T21:06:23.781Z,100481.03
2022-09-05T21:08:56.140Z,100470.97
2022-09-05T21:11:30.896Z,100471.88
2022-09-05T21:14:02.966Z,100472.28
2022-09-05T21:16:36.921Z,100477.44
2022-09-05T21:19:05.847Z,100471.25
2022-09-05T21:21:36.324Z,100470.06
2022-09-05T21:24:17.498Z,100479.81
2022-09-05T21:26:48.905Z,100482.97
2022-09-05T21:29:32.721Z,100487.63
2022-09-05T21:32:10.747Z,100483.53
2022-09-05T21:34:44.770Z,100481.78
2022-09-05T21:37:15.383Z,100483.53
2022-09-05T21:39:59.169Z,100479.66
2022-09-05T21:46:58.551Z,100483.06
2022-09-05T21:47:48.432Z,100479.22
2022-09-05T21:48:11.930Z,100475.16
2022-09-05T21:50:43.601Z,100480.41
2022-09-05T21:55:34.317Z,100478.66
2022-09-05T21:59:17.035Z,100482.34
2022-09-05T21:59:24.054Z,100482.94
2022-09-05T22:01:57.345Z,100484.66
2022-09-05T22:04:26.924Z,100484.16
2022-09-05T22:06:57.706Z,100477.75
2022-09-05T22:09:25.760Z,100479.72
2022-09-05T22:11:53.904Z,100480.94
2022-09-05T22:14:24.223Z,100477.69
2022-09-05T22:16:56.158Z,100482.72
2022-09-05T22:19:37.829Z,100470.34
2022-09-05T22:22:16.450Z,100480.44
2022-09-05T22:24:50.757Z,100480.69
2022-09-05T22:27:20.634Z,100472.81
2022-09-05T22:29:51.002Z,100470.53
2022-09-05T22:32:34.689Z,100466.28
2022-09-05T22:35:15.977Z,100477.25
2022-09-05T22:38:01.357Z,100465.84
2022-09-05T22:40:31.814Z,100470.19
2022-09-05T22:43:01.425Z,100461.09
2022-09-05T22:45:31.417Z,100459.44
2022-09-05T22:48:00.240Z,100452.53
2022-09-05T22:50:29.840Z,100459.31
2022-09-05T22:52:57.971Z,100462.31
2022-09-05T22:55:26.216Z,100454.56
2022-09-05T22:57:54.378Z,100457.09
2022-09-05T23:00:22.804Z,100457.22
2022-09-05T23:02:52.873Z,100457.81
2022-09-05T23:05:21.077Z,100459.66
2022-09-05T23:07:50.498Z,100465.00
2022-09-05T23:10:18.607Z,100456.25
2022-09-05T23:12:47.223Z,100456.25
2022-09-05T23:15:15.520Z,100458.06
2022-09-05T23:17:44.112Z,100456.25
2022-09-05T23:20:12.800Z,100445.69
2022-09-05T23:22:43.222Z,100446.69
2022-09-05T23:25:12.953Z,100454.81
2022-09-05T23:27:41.093Z,100450.31
2022-09-05T23:30:10.438Z,100449.84
2022-09-05T23:32:38.554Z,100440.53
2022-09-05T23:35:07.462Z,100452.22
2022-09-05T23:37:35.576Z,100440.53
2022-09-05T23:40:04.178Z,100435.44
2022-09-05T23:42:33.658Z,100439.47
2022-09-05T23:45:01.729Z,100433.53
2022-09-05T23:47:29.884Z,100442.09
2022-09-05T23:49:58.048Z,100434.69
2022-09-05T23:52:26.109Z,100440.69
2022-09-05T23:54:54.214Z,100429.94
2022-09-05T23:57:23.507Z,100433.00
2022-09-05T23:59:53.046Z,100431.78
